Observation data for Tatum on 05/24/2019      Previous  Date  Next       Current Mesonet Observations  Soil Data  Daily Summary Page  Observations in Plain Language
KTAT 240500Z 01009KT 21/M05 A2998 RMK A01 T02071049  RH  017%=      5-min Rain = 0
KTAT 240505Z 01010KT 20/M05 A2998 RMK A01 T02041051  RH  018%=      5-min Rain = 0
KTAT 240510Z 36009KT 20/M05 A2998 RMK A01 T02011048  RH  018%=      5-min Rain = 0
KTAT 240515Z 36007KT 20/M05 A2998 RMK A01 T02011052  RH  018%=      5-min Rain = 0
KTAT 240520Z 01007KT 20/M05 A2997 RMK A01 T01971047  RH  019%=      5-min Rain = 0
KTAT 240525Z 03006KT 19/M05 A2998 RMK A01 T01911045  RH  020%=      5-min Rain = 0
KTAT 240530Z 03006KT 19/M04 A2998 RMK A01 T01861043  RH  021%=      5-min Rain = 0
KTAT 240535Z 07004KT 18/M04 A2998 RMK A01 T01831043  RH  021%=      5-min Rain = 0
KTAT 240540Z 12007KT 17/M04 A2998 RMK A01 T01681038  RH  024%=      5-min Rain = 0
KTAT 240545Z 13006KT 18/01 A2999 RMK A01 T01760012  RH  034%=      5-min Rain = 0
KTAT 240550Z 14007KT 17/05 A2999 RMK A01 T01740054  RH  046%=      5-min Rain = 0
KTAT 240555Z 14007KT 17/08 A2999 RMK A01 T01670078  RH  057%=      5-min Rain = 0
KTAT 240600Z 12007KT 16/09 A30 RMK A01 T01590086  RH  064%=      5-min Rain = 0
KTAT 240605Z 13006KT 15/09 A30 RMK A01 T01540090  RH  068%=      5-min Rain = 0
KTAT 240610Z 14003KT 15/09 A2999 RMK A01 T01520090  RH  068%=      5-min Rain = 0
KTAT 240615Z 15002KT 15/09 A2999 RMK A01 T01530094  RH  070%=      5-min Rain = 0
KTAT 240620Z 15001KT 16/09 A2999 RMK A01 T01550091  RH  067%=      5-min Rain = 0
KTAT 240625Z 27000KT 15/09 A2998 RMK A01 T01510085  RH  066%=      5-min Rain = 0
KTAT 240630Z 29000KT 15/08 A2998 RMK A01 T01490082  RH  066%=      5-min Rain = 0
KTAT 240635Z 29001KT 15/08 A2998 RMK A01 T01460078  RH  066%=      5-min Rain = 0
KTAT 240640Z 28002KT 14/07 A2998 RMK A01 T01400073  RH  065%=      5-min Rain = 0
KTAT 240645Z 26002KT 14/07 A2998 RMK A01 T01380073  RH  067%=      5-min Rain = 0
KTAT 240650Z 28003KT 14/07 A2997 RMK A01 T01360068  RH  065%=      5-min Rain = 0
KTAT 240655Z 29004KT 13/06 A2997 RMK A01 T01320062  RH  064%=      5-min Rain = 0
KTAT 240700Z 30003KT 13/06 A2997 RMK A01 T01290063  RH  066%=      5-min Rain = 0
KTAT 240705Z 31004KT 13/06 A2997 RMK A01 T01300061  RH  065%=      5-min Rain = 0
KTAT 240710Z 33005KT 13/06 A2997 RMK A01 T01300058  RH  063%=      5-min Rain = 0
KTAT 240715Z 30003KT 13/06 A2997 RMK A01 T01300055  RH  062%=      5-min Rain = 0
KTAT 240720Z 30005KT 13/05 A2996 RMK A01 T01300049  RH  059%=      5-min Rain = 0
KTAT 240725Z 28005KT 13/05 A2996 RMK A01 T01280046  RH  058%=      5-min Rain = 0
KTAT 240730Z 28006KT 13/05 A2996 RMK A01 T01300046  RH  058%=      5-min Rain = 0
KTAT 240735Z 28005KT 13/04 A2996 RMK A01 T01320044  RH  056%=      5-min Rain = 0
KTAT 240740Z 28005KT 13/04 A2996 RMK A01 T01320042  RH  055%=      5-min Rain = 0
KTAT 240745Z 28005KT 13/04 A2996 RMK A01 T01330042  RH  055%=      5-min Rain = 0
KTAT 240750Z 30006KT 13/04 A2996 RMK A01 T01320039  RH  054%=      5-min Rain = 0
KTAT 240755Z 30006KT 13/04 A2996 RMK A01 T01270041  RH  057%=      5-min Rain = 0
KTAT 240800Z 29006KT 13/04 A2996 RMK A01 T01260040  RH  057%=      5-min Rain = 0
KTAT 240805Z 30005KT 13/04 A2996 RMK A01 T01290041  RH  056%=      5-min Rain = 0
KTAT 240810Z 30005KT 13/04 A2996 RMK A01 T01310040  RH  055%=      5-min Rain = 0
KTAT 240815Z 29005KT 13/04 A2996 RMK A01 T01310036  RH  054%=      5-min Rain = 0
KTAT 240820Z 29005KT 13/04 A2996 RMK A01 T01270035  RH  054%=      5-min Rain = 0
KTAT 240825Z 30007KT 13/03 A2996 RMK A01 T01260032  RH  053%=      5-min Rain = 0
KTAT 240830Z 31008KT 13/02 A2996 RMK A01 T01310022  RH  048%=      5-min Rain = 0
KTAT 240835Z 30008KT 13/01 A2996 RMK A01 T01330011  RH  044%=      5-min Rain = 0
KTAT 240840Z 30008KT 14/00 A2996 RMK A01 T01350004  RH  041%=      5-min Rain = 0
KTAT 240845Z 29007KT 14/M00 A2996 RMK A01 T01401003  RH  038%=      5-min Rain = 0
KTAT 240850Z 29007KT 15/M01 A2996 RMK A01 T01461011  RH  034%=      5-min Rain = 0
KTAT 240855Z 30007KT 15/M02 A2996 RMK A01 T01531017  RH  031%=      5-min Rain = 0
KTAT 240900Z 30005KT 16/M02 A2996 RMK A01 T01571019  RH  030%=      5-min Rain = 0
KTAT 240905Z 32005KT 16/M02 A2996 RMK A01 T01591020  RH  030%=      5-min Rain = 0
KTAT 240910Z 32006KT 16/M02 A2996 RMK A01 T01601019  RH  030%=      5-min Rain = 0
KTAT 240915Z 31005KT 16/M02 A2996 RMK A01 T01601018  RH  030%=      5-min Rain = 0
KTAT 240920Z 29004KT 16/M02 A2996 RMK A01 T01611019  RH  029%=      5-min Rain = 0
KTAT 240925Z 30005KT 16/M02 A2996 RMK A01 T01631020  RH  029%=      5-min Rain = 0
KTAT 240930Z 29004KT 16/M02 A2997 RMK A01 T01621020  RH  029%=      5-min Rain = 0
KTAT 240935Z 08005G10KT 16/M02 A2998 RMK A01 T01631016  RH  030%=      5-min Rain = 0
KTAT 240940Z 07005KT 16/M00 A2998 RMK A01 T01641004  RH  032%=      5-min Rain = 0
KTAT 240945Z 06005KT 16/00 A2998 RMK A01 T01630004  RH  034%=      5-min Rain = 0
KTAT 240950Z 05004KT 16/00 A2997 RMK A01 T01620003  RH  035%=      5-min Rain = 0
KTAT 240955Z 08006KT 16/01 A2997 RMK A01 T01550006  RH  037%=      5-min Rain = 0
KTAT 241000Z 09006KT 15/02 A2998 RMK A01 T01480015  RH  041%=      5-min Rain = 0
KTAT 241005Z 08005KT 15/02 A2998 RMK A01 T01450022  RH  044%=      5-min Rain = 0
KTAT 241010Z 05003KT 15/03 A2998 RMK A01 T01480026  RH  044%=      5-min Rain = 0
KTAT 241015Z 03002KT 15/03 A2998 RMK A01 T01520026  RH  043%=      5-min Rain = 0
KTAT 241020Z 04002KT 15/03 A2998 RMK A01 T01530025  RH  043%=      5-min Rain = 0
KTAT 241025Z 03000KT 15/02 A2998 RMK A01 T01500022  RH  043%=      5-min Rain = 0
KTAT 241030Z 04001KT 15/02 A2998 RMK A01 T01470022  RH  043%=      5-min Rain = 0
KTAT 241035Z 05002KT 15/02 A2998 RMK A01 T01490024  RH  044%=      5-min Rain = 0
KTAT 241040Z 05002KT 15/03 A2998 RMK A01 T01530027  RH  044%=      5-min Rain = 0
KTAT 241045Z 04003KT 15/04 A2998 RMK A01 T01540037  RH  046%=      5-min Rain = 0
KTAT 241050Z 04003KT 16/04 A2998 RMK A01 T01560041  RH  047%=      5-min Rain = 0
KTAT 241055Z 35002KT 16/04 A2998 RMK A01 T01550038  RH  046%=      5-min Rain = 0
KTAT 241100Z 34003KT 15/05 A2998 RMK A01 T01540045  RH  049%=      5-min Rain = 0
KTAT 241105Z 33002KT 16/05 A2998 RMK A01 T01550048  RH  050%=      5-min Rain = 0
KTAT 241110Z 34002KT 16/05 A2999 RMK A01 T01570052  RH  051%=      5-min Rain = 0
KTAT 241115Z 36002KT 16/05 A2999 RMK A01 T01580051  RH  050%=      5-min Rain = 0
KTAT 241120Z 03001KT 16/05 A2999 RMK A01 T01590052  RH  050%=      5-min Rain = 0
KTAT 241125Z 03000KT 16/05 A2999 RMK A01 T01600054  RH  050%=      5-min Rain = 0
KTAT 241130Z 00000KT 16/06 A30 RMK A01 T01600055  RH  051%=      5-min Rain = 0
KTAT 241135Z 00000KT 16/06 A30 RMK A01 T01610055  RH  051%=      5-min Rain = 0
KTAT 241140Z 03000KT 16/06 A2999 RMK A01 T01610056  RH  051%=      5-min Rain = 0
KTAT 241145Z 03002KT 16/06 A2999 RMK A01 T01620059  RH  052%=      5-min Rain = 0
KTAT 241150Z 03002KT 16/07 A2999 RMK A01 T01620069  RH  055%=      5-min Rain = 0
KTAT 241155Z 03002KT 16/07 A2999 RMK A01 T01610074  RH  058%=      5-min Rain = 0
KTAT 241200Z 02002KT 16/08 A30 RMK A01 T01610076  RH  059%=      5-min Rain = 0
KTAT 241205Z 36003KT 16/07 A30 RMK A01 T01600071  RH  057%=      5-min Rain = 0
KTAT 241210Z 02002KT 16/08 A30 RMK A01 T01600075  RH  059%=      5-min Rain = 0
KTAT 241215Z 34002KT 16/08 A30 RMK A01 T01610078  RH  059%=      5-min Rain = 0
KTAT 241220Z 34003KT 16/08 A30 RMK A01 T01630078  RH  059%=      5-min Rain = 0
KTAT 241225Z 34003KT 17/08 A30 RMK A01 T01650084  RH  060%=      5-min Rain = 0
KTAT 241230Z 34004KT 17/09 A30 RMK A01 T01670088  RH  061%=      5-min Rain = 0
KTAT 241235Z 33003KT 17/09 A30 RMK A01 T01660089  RH  062%=      5-min Rain = 0
KTAT 241240Z 00002KT 17/09 A3001 RMK A01 T01660090  RH  063%=      5-min Rain = 0
KTAT 241245Z 01004KT 17/09 A3001 RMK A01 T01670093  RH  063%=      5-min Rain = 0
KTAT 241250Z 36004KT 17/09 A3001 RMK A01 T01690094  RH  063%=      5-min Rain = 0
KTAT 241255Z 34003KT 17/09 A3001 RMK A01 T01700094  RH  063%=      5-min Rain = 0
KTAT 241300Z 33003KT 17/10 A3001 RMK A01 T01720095  RH  062%=      5-min Rain = 0
KTAT 241305Z 35004KT 18/10 A3001 RMK A01 T01770097  RH  061%=      5-min Rain = 0
KTAT 241310Z 35004KT 18/10 A3001 RMK A01 T01810097  RH  060%=      5-min Rain = 0
KTAT 241315Z 02003KT 18/10 A3002 RMK A01 T01800097  RH  060%=      5-min Rain = 0
KTAT 241320Z 02003KT 18/10 A3002 RMK A01 T01840098  RH  059%=      5-min Rain = 0
KTAT 241325Z 04003KT 19/10 A3002 RMK A01 T01890097  RH  057%=      5-min Rain = 0
KTAT 241330Z 03003KT 19/10 A3002 RMK A01 T01940096  RH  055%=      5-min Rain = 0
KTAT 241335Z 04003KT 20/10 A3002 RMK A01 T01970097  RH  054%=      5-min Rain = 0
KTAT 241340Z 04003KT 20/10 A3002 RMK A01 T02000099  RH  054%=      5-min Rain = 0
KTAT 241345Z 06004KT 20/10 A3002 RMK A01 T01980100  RH  055%=      5-min Rain = 0
KTAT 241350Z 05003KT 20/10 A3002 RMK A01 T01970102  RH  056%=      5-min Rain = 0
KTAT 241355Z 06003KT 20/10 A3002 RMK A01 T01980104  RH  056%=      5-min Rain = 0
KTAT 241400Z 07004KT 20/11 A3002 RMK A01 T02030105  RH  055%=      5-min Rain = 0
KTAT 241405Z 05003KT 20/10 A3002 RMK A01 T02020104  RH  055%=      5-min Rain = 0
KTAT 241410Z 05003KT 20/11 A3002 RMK A01 T02010106  RH  056%=      5-min Rain = 0
KTAT 241415Z 03002KT 20/11 A3002 RMK A01 T02020107  RH  056%=      5-min Rain = 0
KTAT 241420Z 05002KT 21/11 A3002 RMK A01 T02130111  RH  054%=      5-min Rain = 0
KTAT 241425Z 06002KT 22/11 A3002 RMK A01 T02230113  RH  051%=      5-min Rain = 0
KTAT 241430Z 07003KT 23/11 A3002 RMK A01 T02270112  RH  050%=      5-min Rain = 0
KTAT 241435Z 05003KT 22/11 A3002 RMK A01 T02240109  RH  050%=      5-min Rain = 0
KTAT 241440Z 06003KT 22/10 A3002 RMK A01 T02240103  RH  048%=      5-min Rain = 0
KTAT 241445Z 08003KT 23/10 A3002 RMK A01 T02330098  RH  044%=      5-min Rain = 0
KTAT 241450Z 01002KT 24/09 A3002 RMK A01 T02380094  RH  041%=      5-min Rain = 0
KTAT 241455Z 01002KT 23/10 A3002 RMK A01 T02310101  RH  045%=      5-min Rain = 0
KTAT 241500Z 34002KT 23/11 A3002 RMK A01 T02290108  RH  048%=      5-min Rain = 0
KTAT 241505Z 04003KT 23/11 A3001 RMK A01 T02320114  RH  049%=      5-min Rain = 0
KTAT 241510Z 09002KT 24/11 A3002 RMK A01 T02350114  RH  048%=      5-min Rain = 0
KTAT 241515Z 09004KT 24/12 A3002 RMK A01 T02440119  RH  047%=      5-min Rain = 0
KTAT 241520Z 11004KT 25/12 A3002 RMK A01 T02490117  RH  045%=      5-min Rain = 0
KTAT 241525Z 14002KT 25/11 A3002 RMK A01 T02490112  RH  044%=      5-min Rain = 0
KTAT 241530Z 13003KT 25/10 A3002 RMK A01 T02530104  RH  040%=      5-min Rain = 0
KTAT 241535Z 05003KT 26/10 A3002 RMK A01 T02560101  RH  039%=      5-min Rain = 0
KTAT 241540Z 06004KT 25/10 A3002 RMK A01 T02490099  RH  040%=      5-min Rain = 0
KTAT 241545Z 03002KT 25/09 A3002 RMK A01 T02480094  RH  039%=      5-min Rain = 0
KTAT 241550Z 31001KT 25/09 A3002 RMK A01 T02480088  RH  037%=      5-min Rain = 0
KTAT 241555Z 07003KT 25/09 A3002 RMK A01 T02530085  RH  035%=      5-min Rain = 0
KTAT 241600Z 05003KT 26/08 A3002 RMK A01 T02590082  RH  033%=      5-min Rain = 0
KTAT 241605Z 07003KT 26/08 A3003 RMK A01 T02600077  RH  032%=      5-min Rain = 0
KTAT 241610Z 05001KT 26/07 A3003 RMK A01 T02600069  RH  030%=      5-min Rain = 0
KTAT 241615Z 03002KT 26/08 A3002 RMK A01 T02610077  RH  032%=      5-min Rain = 0
KTAT 241620Z 04003KT 26/08 A3002 RMK A01 T02590075  RH  032%=      5-min Rain = 0
KTAT 241625Z 05003KT 27/07 A3002 RMK A01 T02650074  RH  031%=      5-min Rain = 0
KTAT 241630Z 09005KT 27/07 A3002 RMK A01 T02700072  RH  029%=      5-min Rain = 0
KTAT 241635Z 10002KT 27/06 A3002 RMK A01 T02700060  RH  027%=      5-min Rain = 0
KTAT 241640Z 03003KT 27/07 A3002 RMK A01 T02680074  RH  030%=      5-min Rain = 0
KTAT 241645Z 09006KT 27/08 A3002 RMK A01 T02690075  RH  030%=      5-min Rain = 0
KTAT 241650Z 07003KT 27/07 A3002 RMK A01 T02700070  RH  029%=      5-min Rain = 0
KTAT 241655Z 27001KT 27/06 A3002 RMK A01 T02670064  RH  028%=      5-min Rain = 0
KTAT 241700Z 13004G9KT 27/06 A3002 RMK A01 T02740055  RH  025%=      5-min Rain = 0
KTAT 241705Z 07005KT 28/05 A3002 RMK A01 T02820050  RH  023%=      5-min Rain = 0
KTAT 241710Z 05007KT 28/05 A3002 RMK A01 T02780046  RH  023%=      5-min Rain = 0
KTAT 241715Z 01008KT 27/05 A3002 RMK A01 T02730046  RH  024%=      5-min Rain = 0
KTAT 241720Z 01005KT 27/05 A3002 RMK A01 T02670048  RH  025%=      5-min Rain = 0
KTAT 241725Z 01005KT 27/05 A3002 RMK A01 T02700049  RH  025%=      5-min Rain = 0
KTAT 241730Z 03002KT 27/04 A3002 RMK A01 T02700042  RH  024%=      5-min Rain = 0
KTAT 241735Z 35005KT 27/04 A3001 RMK A01 T02720035  RH  022%=      5-min Rain = 0
KTAT 241740Z 27002KT 27/04 A3001 RMK A01 T02690035  RH  022%=      5-min Rain = 0
KTAT 241745Z 08002KT 28/03 A3001 RMK A01 T02760033  RH  021%=      5-min Rain = 0
KTAT 241750Z 13005KT 29/04 A3001 RMK A01 T02860036  RH  021%=      5-min Rain = 0
KTAT 241755Z 11005KT 29/04 A3001 RMK A01 T02900036  RH  020%=      5-min Rain = 0
KTAT 241800Z 13003KT 29/03 A3001 RMK A01 T02850034  RH  020%=      5-min Rain = 0
KTAT 241805Z 09007KT 29/04 A30 RMK A01 T02920036  RH  020%=      5-min Rain = 0
KTAT 241810Z 11005KT 30/03 A30 RMK A01 T02950028  RH  018%=      5-min Rain = 0
KTAT 241815Z 00004G9KT 29/03 A30 RMK A01 T02870028  RH  019%=      5-min Rain = 0
KTAT 241820Z 05004KT 29/03 A30 RMK A01 T02850030  RH  020%=      5-min Rain = 0
KTAT 241825Z 10004KT 29/03 A30 RMK A01 T02930026  RH  018%=      5-min Rain = 0
KTAT 241830Z 09004G9KT 29/02 A2999 RMK A01 T02930018  RH  017%=      5-min Rain = 0
KTAT 241835Z 09005KT 31/01 A2999 RMK A01 T03050013  RH  016%=      5-min Rain = 0
KTAT 241840Z 28003G8KT 30/M01 A2999 RMK A01 T03011011  RH  013%=      5-min Rain = 0
KTAT 241845Z 18004G10KT 29/M02 A2998 RMK A01 T02931015  RH  014%=      5-min Rain = 0
KTAT 241850Z 18005G12KT 30/M01 A2998 RMK A01 T03021013  RH  013%=      5-min Rain = 0
KTAT 241855Z 31003G8KT 31/M02 A2997 RMK A01 T03051018  RH  012%=      5-min Rain = 0
KTAT 241900Z 21005G14KT 31/M01 A2997 RMK A01 T03051014  RH  013%=      5-min Rain = 0
KTAT 241905Z 13012G17KT 31/01 A2997 RMK A01 T03090011  RH  015%=      5-min Rain = 0
KTAT 241910Z 11008KT 31/01 A2997 RMK A01 T03050014  RH  016%=      5-min Rain = 0
KTAT 241915Z 17008KT 31/M01 A2996 RMK A01 T03091013  RH  013%=      5-min Rain = 0
KTAT 241920Z 20007G14KT 31/M03 A2996 RMK A01 T03101032  RH  011%=      5-min Rain = 0
KTAT 241925Z 22008G19KT 31/M04 A2996 RMK A01 T03091036  RH  011%=      5-min Rain = 0
KTAT 241930Z 28008G13KT 31/M04 A2995 RMK A01 T03061038  RH  011%=      5-min Rain = 0
KTAT 241935Z 26008KT 31/M04 A2995 RMK A01 T03071038  RH  010%=      5-min Rain = 0
KTAT 241940Z 25007G12KT 31/M04 A2995 RMK A01 T03091038  RH  010%=      5-min Rain = 0
KTAT 241945Z 18008G13KT 32/M03 A2994 RMK A01 T03171033  RH  010%=      5-min Rain = 0
KTAT 241950Z 21009G14KT 32/M04 A2994 RMK A01 T03211037  RH  010%=      5-min Rain = 0
KTAT 241955Z 19009KT 32/M04 A2994 RMK A01 T03181037  RH  010%=      5-min Rain = 0
KTAT 242000Z 19007KT 32/M03 A2994 RMK A01 T03241033  RH  010%=      5-min Rain = 0
KTAT 242005Z 25008G14KT 32/M04 A2994 RMK A01 T03201043  RH  009%=      5-min Rain = 0
KTAT 242010Z 20011KT 32/M04 A2994 RMK A01 T03201042  RH  009%=      5-min Rain = 0
KTAT 242015Z 25008G13KT 32/M05 A2994 RMK A01 T03211045  RH  009%=      5-min Rain = 0
KTAT 242020Z 21009KT 32/M04 A2994 RMK A01 T03241044  RH  009%=      5-min Rain = 0
KTAT 242025Z 15006G13KT 32/M04 A2993 RMK A01 T03241043  RH  009%=      5-min Rain = 0
KTAT 242030Z 22011G19KT 33/M05 A2994 RMK A01 T03261048  RH  009%=      5-min Rain = 0
KTAT 242035Z 21012G18KT 32/M05 A2994 RMK A01 T03241048  RH  009%=      5-min Rain = 0
KTAT 242040Z 19010G19KT 33/M05 A2993 RMK A01 T03291050  RH  008%=      5-min Rain = 0
KTAT 242045Z 22007G15KT 32/M06 A2993 RMK A01 T03221057  RH  008%=      5-min Rain = 0
KTAT 242050Z 22013G20KT 32/M06 A2993 RMK A01 T03231059  RH  008%=      5-min Rain = 0
KTAT 242055Z 22018G24KT 33/M06 A2992 RMK A01 T03261058  RH  008%=      5-min Rain = 0
KTAT 242100Z 23018G23KT 32/M06 A2993 RMK A01 T03231062  RH  008%=      5-min Rain = 0
KTAT 242105Z 21008KT 32/M06 A2992 RMK A01 T03241058  RH  008%=      5-min Rain = 0
KTAT 242110Z 23012G22KT 33/M06 A2992 RMK A01 T03281060  RH  008%=      5-min Rain = 0
KTAT 242115Z 22013G18KT 33/M06 A2992 RMK A01 T03251060  RH  008%=      5-min Rain = 0
KTAT 242120Z 22014KT 33/M07 A2992 RMK A01 T03251067  RH  008%=      5-min Rain = 0
KTAT 242125Z 22011G17KT 32/M07 A2992 RMK A01 T03221067  RH  008%=      5-min Rain = 0
KTAT 242130Z 19009G16KT 33/M06 A2991 RMK A01 T03261063  RH  008%=      5-min Rain = 0
KTAT 242135Z 22010G15KT 33/M07 A2991 RMK A01 T03271066  RH  008%=      5-min Rain = 0
KTAT 242140Z 20013G21KT 33/M07 A2991 RMK A01 T03271065  RH  008%=      5-min Rain = 0
KTAT 242145Z 20015KT 33/M07 A2991 RMK A01 T03271068  RH  007%=      5-min Rain = 0
KTAT 242150Z 24010G15KT 33/M07 A2991 RMK A01 T03251068  RH  008%=      5-min Rain = 0
KTAT 242155Z 22007G12KT 32/M06 A2991 RMK A01 T03241063  RH  008%=      5-min Rain = 0
KTAT 242200Z 21013G18KT 33/M06 A299 RMK A01 T03301064  RH  008%=      5-min Rain = 0
KTAT 242205Z 22013G18KT 33/M07 A299 RMK A01 T03271067  RH  007%=      5-min Rain = 0
KTAT 242210Z 22012G19KT 33/M07 A299 RMK A01 T03251066  RH  008%=      5-min Rain = 0
KTAT 242215Z 22015G20KT 33/M07 A299 RMK A01 T03251065  RH  008%=      5-min Rain = 0
KTAT 242220Z 22015G20KT 32/M07 A299 RMK A01 T03231065  RH  008%=      5-min Rain = 0
KTAT 242225Z 23015KT 32/M07 A299 RMK A01 T03221065  RH  008%=      5-min Rain = 0
KTAT 242230Z 23011G16KT 32/M06 A299 RMK A01 T03201064  RH  008%=      5-min Rain = 0
KTAT 242235Z 21012G17KT 32/M06 A2989 RMK A01 T03241062  RH  008%=      5-min Rain = 0
KTAT 242240Z 22014KT 32/M06 A2989 RMK A01 T03241063  RH  008%=      5-min Rain = 0
KTAT 242245Z 22014G19KT 32/M06 A2989 RMK A01 T03211062  RH  008%=      5-min Rain = 0
KTAT 242250Z 20010KT 32/M06 A2989 RMK A01 T03221061  RH  008%=      5-min Rain = 0
KTAT 242255Z 21010KT 32/M06 A2989 RMK A01 T03231061  RH  008%=      5-min Rain = 0
KTAT 242300Z 20012G17KT 33/M06 A2989 RMK A01 T03251062  RH  008%=      5-min Rain = 0
KTAT 242305Z 20012G18KT 33/M06 A2988 RMK A01 T03281060  RH  008%=      5-min Rain = 0
KTAT 242310Z 19010G17KT 32/M06 A2988 RMK A01 T03241063  RH  008%=      5-min Rain = 0
KTAT 242315Z 19010G20KT 33/M06 A2988 RMK A01 T03271057  RH  008%=      5-min Rain = 0
KTAT 242320Z 22014G20KT 33/M06 A2988 RMK A01 T03261060  RH  008%=      5-min Rain = 0
KTAT 242325Z 23016G21KT 32/M06 A2988 RMK A01 T03221061  RH  008%=      5-min Rain = 0
KTAT 242330Z 22016G21KT 32/M06 A2988 RMK A01 T03201062  RH  008%=      5-min Rain = 0
KTAT 242335Z 24012G18KT 32/M06 A2988 RMK A01 T03161063  RH  008%=      5-min Rain = 0
KTAT 242340Z 22015G21KT 32/M06 A2988 RMK A01 T03161063  RH  008%=      5-min Rain = 0
KTAT 242345Z 22015KT 32/M06 A2988 RMK A01 T03171063  RH  008%=      5-min Rain = 0
KTAT 242350Z 22013G19KT 32/M06 A2988 RMK A01 T03151062  RH  008%=      5-min Rain = 0
KTAT 242355Z 22009G15KT 31/M06 A2987 RMK A01 T03141062  RH  008%=      5-min Rain = 0
KTAT 250000Z 18011G16KT 32/M06 A2987 RMK A01 T03171058  RH  008%=      5-min Rain = 0
KTAT 250005Z 20013G18KT 32/M06 A2987 RMK A01 T03171061  RH  008%=      5-min Rain = 0
KTAT 250010Z 22011KT 31/M06 A2987 RMK A01 T03141062  RH  008%=      5-min Rain = 0
KTAT 250015Z 22010KT 31/M06 A2987 RMK A01 T03121060  RH  009%=      5-min Rain = 0
KTAT 250020Z 20008KT 31/M06 A2987 RMK A01 T03131058  RH  009%=      5-min Rain = 0
KTAT 250025Z 20011KT 32/M06 A2987 RMK A01 T03161056  RH  009%=      5-min Rain = 0
KTAT 250030Z 21014G21KT 31/M06 A2988 RMK A01 T03131059  RH  009%=      5-min Rain = 0
KTAT 250035Z 21016KT 31/M06 A2987 RMK A01 T03111061  RH  009%=      5-min Rain = 0
KTAT 250040Z 23015KT 31/M06 A2987 RMK A01 T03081061  RH  009%=      5-min Rain = 0
KTAT 250045Z 22012G17KT 31/M06 A2988 RMK A01 T03071062  RH  009%=      5-min Rain = 0
KTAT 250050Z 22011KT 31/M06 A2988 RMK A01 T03071061  RH  009%=      5-min Rain = 0
KTAT 250055Z 20014KT 31/M07 A2988 RMK A01 T03051066  RH  009%=      5-min Rain = 0
KTAT 250100Z 21017KT 30/M07 A2988 RMK A01 T03031068  RH  009%=      5-min Rain = 0
KTAT 250105Z 20013KT 30/M07 A2988 RMK A01 T03011067  RH  009%=      5-min Rain = 0
KTAT 250110Z 21014G19KT 30/M07 A2988 RMK A01 T02991069  RH  009%=      5-min Rain = 0
KTAT 250115Z 23015KT 30/M07 A2988 RMK A01 T02951072  RH  009%=      5-min Rain = 0
KTAT 250120Z 22013KT 29/M07 A2988 RMK A01 T02911071  RH  009%=      5-min Rain = 0
KTAT 250125Z 22011KT 29/M07 A2988 RMK A01 T02871069  RH  009%=      5-min Rain = 0
KTAT 250130Z 23011KT 28/M07 A2988 RMK A01 T02821071  RH  009%=      5-min Rain = 0
KTAT 250135Z 22011KT 28/M07 A2989 RMK A01 T02801073  RH  009%=      5-min Rain = 0
KTAT 250140Z 22010KT 27/M07 A2989 RMK A01 T02731072  RH  010%=      5-min Rain = 0
KTAT 250145Z 23009KT 26/M07 A2989 RMK A01 T02641071  RH  010%=      5-min Rain = 0
KTAT 250150Z 23009KT 26/M07 A2989 RMK A01 T02571071  RH  011%=      5-min Rain = 0
KTAT 250155Z 23008KT 25/M07 A2989 RMK A01 T02471071  RH  012%=      5-min Rain = 0
KTAT 250200Z 22007KT 24/M07 A299 RMK A01 T02361071  RH  012%=      5-min Rain = 0
KTAT 250205Z 16010G17KT 22/M06 A2991 RMK A01 T02241064  RH  014%=      5-min Rain = 0
KTAT 250210Z 16015G20KT 24/10 A2991 RMK A01 T02370102  RH  045%=      5-min Rain = 0
KTAT 250215Z 15015KT 25/15 A2991 RMK A01 T02490149  RH  056%=      5-min Rain = 0
KTAT 250220Z 16012G22KT 25/15 A2992 RMK A01 T02480152  RH  057%=      5-min Rain = 0
KTAT 250225Z 16020G27KT 25/16 A2992 RMK A01 T02460158  RH  061%=      5-min Rain = 0
KTAT 250230Z 16019G25KT 24/16 A2992 RMK A01 T02440158  RH  062%=      5-min Rain = 0
KTAT 250235Z 16014G19KT 24/16 A2993 RMK A01 T02400157  RH  063%=      5-min Rain = 0
KTAT 250240Z 17013KT 24/16 A2993 RMK A01 T02380157  RH  063%=      5-min Rain = 0
KTAT 250245Z 17018KT 24/16 A2993 RMK A01 T02370159  RH  064%=      5-min Rain = 0
KTAT 250250Z 16018KT 24/16 A2993 RMK A01 T02370160  RH  065%=      5-min Rain = 0
KTAT 250255Z 16016G22KT 24/16 A2994 RMK A01 T02350160  RH  066%=      5-min Rain = 0
KTAT 250300Z 16015G22KT 23/16 A2994 RMK A01 T02320159  RH  066%=      5-min Rain = 0
KTAT 250305Z 16017G22KT 23/16 A2994 RMK A01 T02310158  RH  067%=      5-min Rain = 0
KTAT 250310Z 16017G22KT 23/16 A2994 RMK A01 T02300159  RH  067%=      5-min Rain = 0
KTAT 250315Z 16016G22KT 23/16 A2994 RMK A01 T02270159  RH  068%=      5-min Rain = 0
KTAT 250320Z 16017KT 23/16 A2994 RMK A01 T02250158  RH  069%=      5-min Rain = 0
KTAT 250325Z 16015G20KT 22/16 A2995 RMK A01 T02220157  RH  070%=      5-min Rain = 0
KTAT 250330Z 17016KT 22/16 A2995 RMK A01 T02220157  RH  070%=      5-min Rain = 0
KTAT 250335Z 16014KT 22/16 A2995 RMK A01 T02200156  RH  070%=      5-min Rain = 0
KTAT 250340Z 16014KT 22/16 A2996 RMK A01 T02190155  RH  070%=      5-min Rain = 0
KTAT 250345Z 17013KT 22/15 A2996 RMK A01 T02170154  RH  070%=      5-min Rain = 0
KTAT 250350Z 16012KT 22/15 A2996 RMK A01 T02150153  RH  071%=      5-min Rain = 0
KTAT 250355Z 16012G17KT 21/15 A2996 RMK A01 T02130152  RH  071%=      5-min Rain = 0
KTAT 250400Z 16015G21KT 21/15 A2997 RMK A01 T02130150  RH  070%=      5-min Rain = 0
KTAT 250405Z 16015G20KT 21/15 A2997 RMK A01 T02140147  RH  069%=      5-min Rain = 0
KTAT 250410Z 17015G20KT 21/15 A2997 RMK A01 T02130146  RH  068%=      5-min Rain = 0
KTAT 250415Z 17015G20KT 21/15 A2997 RMK A01 T02120146  RH  069%=      5-min Rain = 0
KTAT 250420Z 16014G19KT 21/15 A2998 RMK A01 T02100146  RH  069%=      5-min Rain = 0
KTAT 250425Z 17015KT 21/15 A2998 RMK A01 T02090146  RH  070%=      5-min Rain = 0
KTAT 250430Z 17014KT 21/15 A2998 RMK A01 T02080145  RH  070%=      5-min Rain = 0
KTAT 250435Z 17013KT 21/15 A2998 RMK A01 T02060145  RH  071%=      5-min Rain = 0
KTAT 250440Z 17013G18KT 21/15 A2998 RMK A01 T02050145  RH  072%=      5-min Rain = 0
KTAT 250445Z 17015G22KT 21/15 A2998 RMK A01 T02050147  RH  073%=      5-min Rain = 0
KTAT 250450Z 17017G22KT 21/15 A2998 RMK A01 T02060149  RH  073%=      5-min Rain = 0
KTAT 250455Z 17015G20KT 21/15 A2998 RMK A01 T02050150  RH  074%=      5-min Rain = 0

Page generated in 0.0317 seconds.